Latest Weather Observations for South Channel Island

IDV60901

Issued at 9:51 am EST Tuesday 16 July 2024 (issued every 10 minutes, with the page automatically refreshed every 10 minutes)

About weather observations | Map of Melbourne area stations | Latest observations for Melbourne area | Other Formats
Station Details ID: 086344 Name: SOUTH CHANNEL ISLAND Lat: -38.31 Lon: 144.80 Height: 9.0 m
Data from the previous 72 hours. | See also: Recent months at South Channel Island
Date/Time
EST
Temp
°C
App
Temp
°C
Dew
Point
°C
Rel
Hum
%
Delta-T
°C
Wind Press
QNH
hPa
Press
MSL
hPa
Rain since
9am
mm
Dir  Spd
km/h
Gust
km/h
Spd
kts
Gust
kts
16/09:30am - - - - - S 20 24 11 13 - - -
16/09:00am - - - - - S 28 32 15 17 - - -
16/08:30am - - - - - S 30 33 16 18 - - -
16/08:00am - - - - - S 28 32 15 17 - - -
16/07:30am - - - - - S 30 33 16 18 - - -
16/07:00am - - - - - S 32 37 17 20 - - -
16/06:30am - - - - - S 32 35 17 19 - - -
16/06:00am - - - - - S 33 39 18 21 - - -
16/05:30am - - - - - S 35 39 19 21 - - -
16/05:00am - - - - - S 35 39 19 21 - - -
16/04:30am - - - - - S 37 43 20 23 - - -
16/04:00am - - - - - S 39 46 21 25 - - -
16/03:30am - - - - - S 43 50 23 27 - - -
16/03:00am - - - - - S 43 50 23 27 - - -
16/02:30am - - - - - S 39 46 21 25 - - -
16/02:00am - - - - - S 43 50 23 27 - - -
16/01:30am - - - - - S 46 56 25 30 - - -
16/01:00am - - - - - SSW 50 57 27 31 - - -
16/12:30am - - - - - S 46 56 25 30 - - -
16/12:00am - - - - - SSW 48 57 26 31 - - -
 
Date/Time
EST
Temp
°C
App
Temp
°C
Dew
Point
°C
Rel
Hum
%
Delta-T
°C
Wind Press
QNH
hPa
Press
MSL
hPa
Rain since
9am
mm
Dir  Spd
km/h
Gust
km/h
Spd
kts
Gust
kts
15/11:32pm - - - - - SSW 52 70 28 38 - - -
15/11:30pm - - - - - SSW 54 70 29 38 - - -
15/11:00pm - - - - - SW 63 78 34 42 - - -
15/10:49pm - - - - - SW 63 82 34 44 - - -
15/10:30pm - - - - - SW 67 80 36 43 - - -
15/10:09pm - - - - - SW 65 83 35 45 - - -
15/10:00pm - - - - - SW 67 80 36 43 - - -
15/09:30pm - - - - - SW 65 83 35 45 - - -
15/09:27pm - - - - - SW 65 83 35 45 - - -
15/09:00pm - - - - - SW 69 82 37 44 - - -
15/08:30pm - - - - - SW 65 83 35 45 - - -
15/08:29pm - - - - - SW 63 83 34 45 - - -
15/08:00pm - - - - - SW 65 82 35 44 - - -
15/07:30pm - - - - - SW 65 87 35 47 - - -
15/07:21pm - - - - - SW 69 87 37 47 - - -
15/07:00pm - - - - - SW 67 82 36 44 - - -
15/06:36pm - - - - - SW 65 83 35 45 - - -
15/06:30pm - - - - - SW 65 80 35 43 - - -
15/06:00pm - - - - - SW 61 80 33 43 - - -
15/05:50pm - - - - - WSW 61 80 33 43 - - -
15/05:30pm - - - - - WSW 65 76 35 41 - - -
15/05:15pm - - - - - SW 63 82 34 44 - - -
15/05:00pm - - - - - SW 61 76 33 41 - - -
15/04:43pm - - - - - SW 59 78 32 42 - - -
15/04:30pm - - - - - WSW 63 78 34 42 - - -
15/04:05pm - - - - - WSW 59 78 32 42 - - -
15/04:00pm - - - - - SW 63 78 34 42 - - -
15/03:45pm - - - - - WSW 59 80 32 43 - - -
15/03:30pm - - - - - SW 57 72 31 39 - - -
15/03:00pm - - - - - SW 57 70 31 38 - - -
15/02:50pm - - - - - SW 56 74 30 40 - - -
15/02:30pm - - - - - SW 57 72 31 39 - - -
15/02:00pm - - - - - WSW 59 70 32 38 - - -
15/01:30pm - - - - - WSW 54 76 29 41 - - -
15/01:02pm - - - - - WSW 52 70 28 38 - - -
15/01:00pm - - - - - WSW 52 63 28 34 - - -
15/12:30pm - - - - - WSW 56 70 30 38 - - -
15/12:00pm - - - - - WSW 54 65 29 35 - - -
15/11:30am - - - - - WSW 52 65 28 35 - - -
15/11:00am - - - - - WSW 56 65 30 35 - - -
15/10:30am - - - - - SW 52 65 28 35 - - -
15/10:00am - - - - - SW 54 63 29 34 - - -
15/09:35am - - - - - WSW 37 59 20 32 - - -
15/09:30am - - - - - WSW 35 44 19 24 - - -
15/09:00am - - - - - W 37 52 20 28 - - -
15/08:30am - - - - - W 43 56 23 30 - - -
15/08:00am - - - - - W 44 52 24 28 - - -
15/07:43am - - - - - W 39 48 21 26 - - -
15/07:30am - - - - - WSW 43 50 23 27 - - -
15/07:00am - - - - - WSW 44 63 24 34 - - -
15/06:49am - - - - - SW 39 67 21 36 - - -
15/06:30am - - - - - WSW 41 52 22 28 - - -
15/06:00am - - - - - WSW 35 44 19 24 - - -
15/05:30am - - - - - SW 43 52 23 28 - - -
15/05:24am - - - - - WSW 35 48 19 26 - - -
15/05:00am - - - - - W 37 44 20 24 - - -
15/04:30am - - - - - W 39 50 21 27 - - -
15/04:00am - - - - - W 44 52 24 28 - - -
15/03:30am - - - - - W 43 52 23 28 - - -
15/03:00am - - - - - W 35 44 19 24 - - -
15/02:30am - - - - - WSW 39 48 21 26 - - -
15/02:00am - - - - - W 41 48 22 26 - - -
15/01:37am - - - - - W 35 56 19 30 - - -
15/01:30am - - - - - W 32 46 17 25 - - -
15/01:00am - - - - - W 37 43 20 23 - - -
15/12:30am - - - - - W 41 50 22 27 - - -
15/12:03am - - - - - WSW 37 46 20 25 - - -
15/12:00am - - - - - SW 37 46 20 25 - - -
 
Date/Time
EST
Temp
°C
App
Temp
°C
Dew
Point
°C
Rel
Hum
%
Delta-T
°C
Wind Press
QNH
hPa
Press
MSL
hPa
Rain since
9am
mm
Dir  Spd
km/h
Gust
km/h
Spd
kts
Gust
kts
14/11:56pm - - - - - SW 35 44 19 24 - - -
14/11:30pm - - - - - SSW 32 37 17 20 - - -
14/11:00pm - - - - - SW 33 41 18 22 - - -
14/10:30pm - - - - - SW 33 41 18 22 - - -
14/10:00pm - - - - - SW 37 44 20 24 - - -
14/09:30pm - - - - - SW 39 54 21 29 - - -
14/09:00pm - - - - - SW 37 44 20 24 - - -
14/08:30pm - - - - - SSW 37 43 20 23 - - -
14/08:00pm - - - - - SSW 39 50 21 27 - - -
14/07:30pm - - - - - SW 44 52 24 28 - - -
14/07:00pm - - - - - SSW 35 44 19 24 - - -
14/06:36pm - - - - - SSW 33 54 18 29 - - -
14/06:30pm - - - - - SSW 35 41 19 22 - - -
14/06:00pm - - - - - SW 44 52 24 28 - - -
14/05:30pm - - - - - SW 39 50 21 27 - - -
14/05:00pm - - - - - SW 39 48 21 26 - - -
14/04:30pm - - - - - SSW 39 48 21 26 - - -
14/04:00pm - - - - - SSW 35 48 19 26 - - -
14/03:30pm - - - - - SW 39 50 21 27 - - -
14/03:00pm - - - - - SW 39 44 21 24 - - -
14/02:30pm - - - - - SSW 37 44 20 24 - - -
14/02:00pm - - - - - SW 43 52 23 28 - - -
14/01:30pm - - - - - SSW 39 48 21 26 - - -
14/01:00pm - - - - - SW 37 46 20 25 - - -
14/12:30pm - - - - - SW 41 48 22 26 - - -
14/12:00pm - - - - - SSW 39 48 21 26 - - -
14/11:30am - - - - - SSW 39 46 21 25 - - -
14/11:00am - - - - - SSW 37 48 20 26 - - -
14/10:30am - - - - - SSW 39 48 21 26 - - -
14/10:00am - - - - - SSW 37 44 20 24 - - -
14/09:30am - - - - - SW 41 48 22 26 - - -
14/09:00am - - - - - SSW 37 43 20 23 - - -
14/08:30am - - - - - SSW 28 39 15 21 - - -
14/08:00am - - - - - SW 35 46 19 25 - - -
14/07:38am - - - - - SSW 33 57 18 31 - - -
14/07:30am - - - - - SSW 32 39 17 21 - - -
14/07:00am - - - - - SSW 35 41 19 22 - - -
14/06:30am - - - - - SW 37 50 20 27 - - -
14/06:00am - - - - - SSW 33 37 18 20 - - -
14/05:30am - - - - - SSW 28 41 15 22 - - -
14/05:00am - - - - - SSW 37 41 20 22 - - -
14/04:30am - - - - - SSW 32 37 17 20 - - -
14/04:10am - - - - - SW 32 50 17 27 - - -
14/04:00am - - - - - SW 32 35 17 19 - - -
14/03:30am - - - - - SW 28 33 15 18 - - -
14/03:00am - - - - - SW 24 30 13 16 - - -
14/02:30am - - - - - SW 30 35 16 19 - - -
14/02:00am - - - - - SSW 30 35 16 19 - - -
14/01:30am - - - - - SSW 19 22 10 12 - - -
14/01:00am - - - - - SW 22 39 12 21 - - -
14/12:30am - - - - - S 15 19 8 10 - - -
14/12:00am - - - - - SSW 39 43 21 23 - - -
 
Date/Time
EST
Temp
°C
App
Temp
°C
Dew
Point
°C
Rel
Hum
%
Delta-T
°C
Wind Press
QNH
hPa
Press
MSL
hPa
Rain since
9am
mm
Dir  Spd
km/h
Gust
km/h
Spd
kts
Gust
kts
13/11:52pm - - - - - SW 32 41 17 22 - - -
13/11:30pm - - - - - SSW 15 20 8 11 - - -
13/11:00pm - - - - - SSW 13 15 7 8 - - -
13/10:30pm - - - - - S 15 17 8 9 - - -
13/10:00pm - - - - - S 20 26 11 14 - - -
13/09:35pm - - - - - S 28 46 15 25 - - -
13/09:30pm - - - - - S 24 28 13 15 - - -
13/09:00pm - - - - - WSW 28 39 15 21 - - -
13/08:30pm - - - - - S 17 22 9 12 - - -
13/08:09pm - - - - - SSW 28 48 15 26 - - -
13/08:00pm - - - - - SSW 22 30 12 16 - - -
13/07:30pm - - - - - SSW 35 43 19 23 - - -
13/07:00pm - - - - - SSW 22 26 12 14 - - -
13/06:30pm - - - - - SSW 26 37 14 20 - - -
13/06:00pm - - - - - SSW 33 39 18 21 - - -
13/05:30pm - - - - - SSW 24 37 13 20 - - -
13/05:00pm - - - - - S 17 20 9 11 - - -
13/04:30pm - - - - - S 28 32 15 17 - - -
13/04:00pm - - - - - SSW 32 39 17 21 - - -
13/03:30pm - - - - - SSW 26 30 14 16 - - -
13/03:00pm - - - - - SSW 32 37 17 20 - - -
13/02:30pm - - - - - SW 30 35 16 19 - - -
13/02:00pm - - - - - SW 28 37 15 20 - - -
13/01:30pm - - - - - SW 28 33 15 18 - - -
13/01:00pm - - - - - SW 32 37 17 20 - - -
13/12:30pm - - - - - SW 32 37 17 20 - - -
13/12:09pm - - - - - W 28 44 15 24 - - -
13/12:00pm - - - - - W 20 26 11 14 - - -
13/11:30am - - - - - W 19 22 10 12 - - -
13/11:00am - - - - - WSW 20 26 11 14 - - -
13/10:30am - - - - - W 28 32 15 17 - - -
13/10:00am - - - - - W 28 30 15 16 - - -

Latest Capital City Observations: Canberra | Sydney | Melbourne | Brisbane | Adelaide | Perth | Hobart | Darwin

Other formats

Comma delimited format used in spreadsheet applications
http://www.bom.gov.au/fwo/IDV60901/IDV60901.94853.axf

JavaScript Object Notation format (JSON) in row-major order
http://www.bom.gov.au/fwo/IDV60901/IDV60901.94853.json

Data quality

Most of these data are generated automatically and are frequently updated. Quality checks on data are not normally performed. It is possible for incorrect values to appear. Refer to information at About Latest Weather Observations and please check the disclaimer before using these data.